Terminal Aerodrome Forecast
Issued by NWS

Home | Current Version | Previous Version | Text Only | Print | Product List | Glossary On
Versions: 1 2 3 4 5 6 7 8 9 10 11 12
075
FTUS46 KMTR 240541
TAFSTS
TAF
KSTS 240541Z 2406/2506 25005KT P6SM BKN200
     FM241000 VRB03KT P6SM BKN060 OVC100
     FM241500 24011KT P6SM -RA OVC060
     FM241900 24012KT P6SM -RA BKN030 OVC050
     FM250000 26011KT P6SM VCSH SCT025 OVC050=

USA.gov is the U.S. government's official web portal to all federal, state and local government web resources and services.